createdAt,value
2023-05-03T00:01:00.408Z,99434.00
2023-05-03T00:02:02.654Z,99433.19
2023-05-03T00:03:07.124Z,99437.78
2023-05-03T00:04:09.294Z,99438.59
2023-05-03T00:05:12.929Z,99444.25
2023-05-03T00:06:16.352Z,99442.91
2023-05-03T00:07:18.414Z,99436.16
2023-05-03T00:08:21.844Z,99439.66
2023-05-03T00:09:24.096Z,99440.19
2023-05-03T00:10:26.252Z,99448.00
2023-05-03T00:11:28.146Z,99438.28
2023-05-03T00:12:30.485Z,99447.19
2023-05-03T00:13:32.499Z,99451.00
2023-05-03T00:14:34.391Z,99449.09
2023-05-03T00:15:36.346Z,99449.38
2023-05-03T00:16:38.393Z,99445.59
2023-05-03T00:17:40.403Z,99454.78
2023-05-03T00:18:42.556Z,99448.56
2023-05-03T00:19:45.118Z,99439.94
2023-05-03T00:20:47.092Z,99448.31
2023-05-03T00:21:48.964Z,99448.31
2023-05-03T00:22:51.753Z,99450.19
2023-05-03T00:23:53.644Z,99453.97
2023-05-03T00:24:56.493Z,99452.09
2023-05-03T00:25:59.404Z,99443.44
2023-05-03T00:27:01.687Z,99451.56
2023-05-03T00:28:03.693Z,99449.09
2023-05-03T00:29:05.556Z,99448.28
2023-05-03T00:30:08.523Z,99445.84
2023-05-03T00:31:11.404Z,99449.38
2023-05-03T00:32:13.353Z,99439.91
2023-05-03T00:33:16.640Z,99438.03
2023-05-03T00:34:18.478Z,99442.09
2023-05-03T00:35:20.667Z,99441.00
2023-05-03T00:36:22.524Z,99440.47
2023-05-03T00:37:25.592Z,99441.28
2023-05-03T00:38:27.709Z,99440.47
2023-05-03T00:39:33.923Z,99441.53
2023-05-03T00:40:35.884Z,99439.09
2023-05-03T00:41:39.634Z,99438.25
2023-05-03T00:42:41.563Z,99431.22
2023-05-03T00:43:43.503Z,99437.72
2023-05-03T00:44:45.434Z,99447.69
2023-05-03T00:45:47.664Z,99438.78
2023-05-03T00:46:50.395Z,99433.66
2023-05-03T00:47:52.767Z,99430.16
2023-05-03T00:48:55.034Z,99438.25
2023-05-03T00:49:57.286Z,99436.38
2023-05-03T00:51:01.125Z,99431.25
2023-05-03T00:52:03.759Z,99425.03
2023-05-03T00:53:06.417Z,99424.22
2023-05-03T00:54:09.869Z,99427.19
2023-05-03T00:55:12.280Z,99422.59
2023-05-03T00:56:23.488Z,99421.53
2023-05-03T00:57:28.509Z,99420.72
2023-05-03T00:58:33.534Z,99430.97
2023-05-03T00:59:35.674Z,99428.00
2023-05-03T01:00:38.220Z,99418.53
2023-05-03T01:01:40.105Z,99415.03
2023-05-03T01:02:42.060Z,99411.28
2023-05-03T01:03:46.721Z,99418.00
2023-05-03T01:04:49.206Z,99417.19
2023-05-03T01:06:34.404Z,99417.72
2023-05-03T01:08:13.631Z,99415.28
2023-05-03T01:09:42.627Z,99420.69
2023-05-03T01:11:14.382Z,99418.28
2023-05-03T01:13:06.938Z,99417.47
2023-05-03T01:14:37.101Z,99431.50
2023-05-03T01:15:46.526Z,99422.88
2023-05-03T01:16:54.626Z,99421.50
2023-05-03T01:18:12.476Z,99421.50
2023-05-03T01:19:29.020Z,99422.56
2023-05-03T01:20:34.876Z,99422.56
2023-05-03T01:21:38.314Z,99425.53
2023-05-03T01:22:48.099Z,99422.84
2023-05-03T01:24:14.071Z,99419.88
2023-05-03T01:25:16.590Z,99417.44
2023-05-03T01:26:24.587Z,99420.41
2023-05-03T01:27:26.512Z,99424.19
2023-05-03T01:28:28.790Z,99423.91
2023-05-03T01:29:30.987Z,99419.88
2023-05-03T01:30:34.522Z,99420.97
2023-05-03T01:31:48.260Z,99418.25
2023-05-03T01:33:05.233Z,99420.97
2023-05-03T01:34:33.936Z,99415.56
2023-05-03T01:35:52.722Z,99421.22
2023-05-03T01:36:59.833Z,99421.47
2023-05-03T01:38:03.124Z,99421.75
2023-05-03T01:39:14.567Z,99412.28
2023-05-03T01:40:20.972Z,99416.63
2023-05-03T01:41:26.976Z,99412.03
2023-05-03T01:42:30.799Z,99413.38
2023-05-03T01:43:36.956Z,99412.28
2023-05-03T01:44:40.429Z,99415.00
2023-05-03T01:45:43.804Z,99416.63
2023-05-03T01:46:46.935Z,99415.53
2023-05-03T01:47:49.479Z,99410.94
2023-05-03T01:48:51.418Z,99419.31
2023-05-03T01:49:53.368Z,99419.31
2023-05-03T01:50:55.469Z,99412.31
2023-05-03T01:51:57.347Z,99410.69
2023-05-03T01:52:59.192Z,99413.38
2023-05-03T01:54:01.193Z,99409.03
2023-05-03T01:55:03.444Z,99413.38
2023-05-03T01:56:06.249Z,99408.22
2023-05-03T01:57:08.091Z,99408.22
2023-05-03T01:58:10.407Z,99411.19
2023-05-03T01:59:12.588Z,99406.59
2023-05-03T02:00:15.170Z,99410.13
2023-05-03T02:01:17.042Z,99408.50
2023-05-03T02:02:18.999Z,99405.78
2023-05-03T02:03:21.259Z,99414.97
2023-05-03T02:04:23.238Z,99405.78
2023-05-03T02:05:26.099Z,99411.19
2023-05-03T02:06:28.197Z,99411.19
2023-05-03T02:07:30.248Z,99401.47
2023-05-03T02:08:32.211Z,99400.41
2023-05-03T02:09:34.270Z,99410.38
2023-05-03T02:10:36.211Z,99407.97
2023-05-03T02:11:38.566Z,99417.66
2023-05-03T02:12:45.292Z,99416.59
2023-05-03T02:13:52.760Z,99413.09
2023-05-03T02:14:54.818Z,99409.03
2023-05-03T02:15:56.797Z,99416.84
2023-05-03T02:16:59.245Z,99414.44
2023-05-03T02:18:02.703Z,99413.34
2023-05-03T02:19:05.741Z,99418.22
2023-05-03T02:20:11.202Z,99418.47
2023-05-03T02:21:13.383Z,99419.81
2023-05-03T02:22:15.304Z,99409.31
2023-05-03T02:23:17.487Z,99414.69
2023-05-03T02:24:19.991Z,99409.31
2023-05-03T02:25:22.058Z,99411.19
2023-05-03T02:26:23.954Z,99407.97
2023-05-03T02:27:26.132Z,99409.84
2023-05-03T02:28:28.184Z,99410.91
2023-05-03T02:29:31.189Z,99417.13
2023-05-03T02:30:35.192Z,99415.75
2023-05-03T02:31:37.303Z,99407.16
2023-05-03T02:32:39.254Z,99409.28
2023-05-03T02:33:41.402Z,99408.47
2023-05-03T02:34:48.068Z,99403.34
2023-05-03T02:35:50.023Z,99403.34
2023-05-03T02:36:51.936Z,99409.00
2023-05-03T02:37:53.833Z,99405.50
2023-05-03T02:38:55.961Z,99405.75
2023-05-03T02:39:58.135Z,99408.44
2023-05-03T02:41:00.112Z,99408.44
2023-05-03T02:42:02.797Z,99407.09
2023-05-03T02:43:05.222Z,99412.22
2023-05-03T02:44:07.053Z,99410.03
2023-05-03T02:45:09.568Z,99410.88
2023-05-03T02:46:11.490Z,99411.09
2023-05-03T02:47:13.755Z,99405.72
2023-05-03T02:48:16.567Z,99406.78
2023-05-03T02:49:18.701Z,99414.88
2023-05-03T02:50:20.627Z,99415.69
2023-05-03T02:51:22.628Z,99414.06
2023-05-03T02:52:24.569Z,99410.56
2023-05-03T02:53:26.731Z,99412.19
2023-05-03T02:54:28.747Z,99410.56
2023-05-03T02:55:30.645Z,99413.25
2023-05-03T02:56:33.515Z,99407.88
2023-05-03T02:57:36.053Z,99412.44
2023-05-03T02:58:38.064Z,99411.63
2023-05-03T02:59:40.079Z,99410.81
2023-05-03T03:00:42.249Z,99414.59
2023-05-03T03:01:45.897Z,99415.41
2023-05-03T03:02:48.030Z,99416.22
2023-05-03T03:03:50.358Z,99412.19
2023-05-03T03:04:52.653Z,99418.09
2023-05-03T03:05:54.632Z,99418.09
2023-05-03T03:06:57.092Z,99419.19
2023-05-03T03:07:59.084Z,99417.31
2023-05-03T03:09:01.131Z,99414.59
2023-05-03T03:10:03.226Z,99412.19
2023-05-03T03:11:06.887Z,99414.06
2023-05-03T03:12:08.945Z,99416.75
2023-05-03T03:13:10.878Z,99418.09
2023-05-03T03:14:12.759Z,99410.81
2023-05-03T03:15:14.670Z,99413.75
2023-05-03T03:16:16.805Z,99412.72
2023-05-03T03:17:18.774Z,99419.97
2023-05-03T03:18:21.038Z,99410.25
2023-05-03T03:19:23.011Z,99414.56
2023-05-03T03:20:24.987Z,99411.06
2023-05-03T03:21:29.484Z,99407.81
2023-05-03T03:22:31.524Z,99408.09
2023-05-03T03:23:33.576Z,99413.22
2023-05-03T03:24:35.883Z,99412.69
2023-05-03T03:25:38.126Z,99416.44
2023-05-03T03:26:40.049Z,99411.06
2023-05-03T03:27:42.085Z,99419.16
2023-05-03T03:28:44.253Z,99417.53
2023-05-03T03:29:46.200Z,99417.53
2023-05-03T03:30:48.230Z,99420.50
2023-05-03T03:31:50.178Z,99420.75
2023-05-03T03:32:53.091Z,99416.19
2023-05-03T03:33:55.190Z,99411.06
2023-05-03T03:34:57.096Z,99409.41
2023-05-03T03:35:58.994Z,99420.19
2023-05-03T03:37:01.238Z,99423.41
2023-05-03T03:38:03.605Z,99416.13
2023-05-03T03:39:06.581Z,99419.66
2023-05-03T03:40:09.933Z,99419.09
2023-05-03T03:41:12.049Z,99418.03
2023-05-03T03:42:15.446Z,99419.09
2023-05-03T03:43:17.279Z,99418.28
2023-05-03T03:44:19.144Z,99423.13
2023-05-03T03:45:21.185Z,99425.03
2023-05-03T03:46:23.122Z,99422.34
2023-05-03T03:47:25.224Z,99428.00
2023-05-03T03:48:27.542Z,99424.47
2023-05-03T03:49:30.340Z,99424.47
2023-05-03T03:50:32.590Z,99425.53
2023-05-03T03:51:35.008Z,99423.09
2023-05-03T03:52:37.062Z,99429.31
2023-05-03T03:53:39.107Z,99427.94
2023-05-03T03:54:41.010Z,99438.72
2023-05-03T03:55:43.135Z,99437.91
2023-05-03T03:56:45.053Z,99441.94
2023-05-03T03:57:46.995Z,99437.38
2023-05-03T03:58:48.884Z,99441.16
2023-05-03T03:59:51.263Z,99436.56
2023-05-03T04:00:53.336Z,99451.94
2023-05-03T04:01:55.203Z,99444.09
2023-05-03T04:02:57.242Z,99446.81
2023-05-03T04:03:59.539Z,99439.78
2023-05-03T04:05:01.521Z,99446.22
2023-05-03T04:06:03.440Z,99445.19
2023-05-03T04:07:05.529Z,99447.06
2023-05-03T04:08:07.381Z,99452.47
2023-05-03T04:09:10.401Z,99446.00
2023-05-03T04:10:12.272Z,99448.91
2023-05-03T04:11:14.264Z,99455.16
2023-05-03T04:12:16.113Z,99454.06
2023-05-03T04:13:18.030Z,99452.19
2023-05-03T04:14:20.153Z,99450.31
2023-05-03T04:15:22.417Z,99450.31
2023-05-03T04:16:24.382Z,99455.44
2023-05-03T04:17:26.434Z,99452.75
2023-05-03T04:18:28.312Z,99447.34
2023-05-03T04:19:30.593Z,99448.16
2023-05-03T04:20:34.106Z,99449.78
2023-05-03T04:21:36.256Z,99441.69
2023-05-03T04:22:40.097Z,99443.56
2023-05-03T04:23:42.077Z,99441.69
2023-05-03T04:24:43.995Z,99440.63
2023-05-03T04:25:48.586Z,99441.44
2023-05-03T04:26:51.881Z,99447.63
2023-05-03T04:27:53.892Z,99447.63
2023-05-03T04:28:55.847Z,99451.94
2023-05-03T04:29:58.479Z,99452.75
2023-05-03T04:31:00.366Z,99453.31
2023-05-03T04:32:02.409Z,99456.25
2023-05-03T04:33:04.587Z,99453.56
2023-05-03T04:34:07.599Z,99453.31
2023-05-03T04:35:12.410Z,99455.75
2023-05-03T04:36:16.062Z,99455.50
2023-05-03T04:37:22.716Z,99460.34
2023-05-03T04:38:24.564Z,99461.69
2023-05-03T04:39:26.534Z,99454.69
2023-05-03T04:40:28.756Z,99458.19
2023-05-03T04:41:30.873Z,99462.50
2023-05-03T04:42:33.248Z,99454.41
2023-05-03T04:43:35.232Z,99466.00
2023-05-03T04:44:37.077Z,99463.84
2023-05-03T04:45:39.853Z,99459.53
2023-05-03T04:46:41.928Z,99459.53
2023-05-03T04:47:43.900Z,99469.25
2023-05-03T04:48:46.381Z,99462.78
2023-05-03T04:49:48.401Z,99463.84
2023-05-03T04:50:52.102Z,99466.28
2023-05-03T04:51:55.214Z,99458.47
2023-05-03T04:52:59.336Z,99461.69
2023-05-03T04:54:01.955Z,99462.50
2023-05-03T04:55:05.564Z,99458.19
2023-05-03T04:56:07.966Z,99459.28
2023-05-03T04:57:10.435Z,99461.97
2023-05-03T04:58:12.406Z,99466.28
2023-05-03T04:59:14.240Z,99463.31
2023-05-03T05:00:16.548Z,99468.97
2023-05-03T05:01:18.879Z,99467.09
2023-05-03T05:02:21.668Z,99464.41
2023-05-03T05:03:23.846Z,99466.28
2023-05-03T05:04:26.180Z,99468.16
2023-05-03T05:05:28.038Z,99464.66
2023-05-03T05:06:31.987Z,99471.13
2023-05-03T05:07:34.360Z,99466.53
2023-05-03T05:08:36.253Z,99468.44
2023-05-03T05:09:38.340Z,99474.63
2023-05-03T05:10:43.553Z,99470.06
2023-05-03T05:11:45.792Z,99468.44
2023-05-03T05:12:47.747Z,99473.03
2023-05-03T05:13:49.713Z,99477.34
2023-05-03T05:14:51.544Z,99474.63
2023-05-03T05:15:53.412Z,99476.53
2023-05-03T05:16:55.335Z,99473.03
2023-05-03T05:17:57.393Z,99476.53
2023-05-03T05:18:59.480Z,99472.22
2023-05-03T05:20:01.704Z,99475.72
2023-05-03T05:21:04.229Z,99470.59
2023-05-03T05:22:06.139Z,99485.69
2023-05-03T05:23:07.962Z,99480.28
2023-05-03T05:24:09.941Z,99481.38
2023-05-03T05:25:11.884Z,99477.88
2023-05-03T05:26:13.762Z,99473.28
2023-05-03T05:27:15.968Z,99481.38
2023-05-03T05:28:17.807Z,99478.69
2023-05-03T05:29:19.798Z,99478.41
2023-05-03T05:30:23.260Z,99484.06
2023-05-03T05:31:25.436Z,99482.19
2023-05-03T05:32:27.280Z,99478.41
2023-05-03T05:33:29.249Z,99486.75
2023-05-03T05:34:42.185Z,99470.59
2023-05-03T05:35:48.698Z,99480.28
2023-05-03T05:36:52.110Z,99479.47
2023-05-03T05:37:54.023Z,99479.47
2023-05-03T05:38:55.950Z,99482.72
2023-05-03T05:39:57.848Z,99477.59
2023-05-03T05:40:59.774Z,99477.88
2023-05-03T05:42:01.888Z,99479.47
2023-05-03T05:43:03.733Z,99471.41
2023-05-03T05:44:05.863Z,99473.28
2023-05-03T05:45:08.441Z,99474.91
2023-05-03T05:46:10.674Z,99483.00
2023-05-03T05:47:12.611Z,99480.28
2023-05-03T05:48:15.100Z,99478.41
2023-05-03T05:49:18.222Z,99483.78
2023-05-03T05:50:20.545Z,99478.41
2023-05-03T05:51:22.778Z,99480.03
2023-05-03T05:52:24.743Z,99481.66
2023-05-03T05:53:26.745Z,99480.84
2023-05-03T05:54:29.343Z,99478.94
2023-05-03T05:55:32.276Z,99479.75
2023-05-03T05:56:34.185Z,99475.44
2023-05-03T05:57:36.034Z,99483.25
2023-05-03T05:58:38.477Z,99475.19
2023-05-03T05:59:40.916Z,99475.19
2023-05-03T06:00:43.010Z,99481.16
2023-05-03T06:01:46.192Z,99477.88
2023-05-03T06:02:48.924Z,99476.81
2023-05-03T06:03:50.967Z,99482.75
2023-05-03T06:04:52.956Z,99477.38
2023-05-03T06:05:54.920Z,99481.16
2023-05-03T06:06:56.854Z,99475.50
2023-05-03T06:07:58.736Z,99478.72
2023-05-03T06:09:04.699Z,99480.34
2023-05-03T06:10:12.032Z,99480.09
2023-05-03T06:11:15.040Z,99481.16
2023-05-03T06:12:16.910Z,99470.09
2023-05-03T06:13:18.995Z,99473.88
2023-05-03T06:14:20.927Z,99477.38
2023-05-03T06:15:22.892Z,99472.81
2023-05-03T06:16:25.357Z,99472.81
2023-05-03T06:17:27.621Z,99478.75
2023-05-03T06:18:29.643Z,99482.50
2023-05-03T06:19:31.574Z,99477.13
2023-05-03T06:20:33.568Z,99479.56
2023-05-03T06:21:35.517Z,99466.88
2023-05-03T06:22:37.929Z,99473.88
2023-05-03T06:23:40.282Z,99473.06
2023-05-03T06:24:42.136Z,99472.03
2023-05-03T06:25:47.528Z,99467.44
2023-05-03T06:26:49.403Z,99474.97
2023-05-03T06:27:51.430Z,99479.84
2023-05-03T06:28:53.284Z,99473.66
2023-05-03T06:29:55.164Z,99476.09
2023-05-03T06:30:57.138Z,99476.34
2023-05-03T06:31:59.048Z,99478.78
2023-05-03T06:33:00.978Z,99474.19
2023-05-03T06:34:02.951Z,99481.47
2023-05-03T06:35:05.427Z,99479.31
2023-05-03T06:36:08.132Z,99477.44
2023-05-03T06:37:10.094Z,99473.66
2023-05-03T06:38:12.136Z,99479.59
2023-05-03T06:39:14.245Z,99468.81
2023-05-03T06:40:16.281Z,99475.00
2023-05-03T06:41:18.128Z,99473.13
2023-05-03T06:42:20.070Z,99468.53
2023-05-03T06:43:22.302Z,99472.06
2023-05-03T06:44:24.224Z,99472.63
2023-05-03T06:45:26.384Z,99477.75
2023-05-03T06:46:28.680Z,99471.53
2023-05-03T06:47:30.723Z,99476.44
2023-05-03T06:48:32.729Z,99478.06
2023-05-03T06:49:34.732Z,99478.31
2023-05-03T06:50:36.834Z,99473.47
2023-05-03T06:51:38.746Z,99478.06
2023-05-03T06:52:41.326Z,99472.38
2023-05-03T06:53:43.333Z,99473.19
2023-05-03T06:54:45.460Z,99470.50
2023-05-03T06:55:47.331Z,99462.97
2023-05-03T06:56:49.222Z,99465.69
2023-05-03T06:57:52.460Z,99461.63
2023-05-03T06:58:54.593Z,99464.59
2023-05-03T06:59:56.603Z,99461.38
2023-05-03T07:00:58.596Z,99463.25
2023-05-03T07:02:00.469Z,99461.63
2023-05-03T07:03:02.562Z,99457.06
2023-05-03T07:04:04.917Z,99449.22
2023-05-03T07:05:07.621Z,99445.44
2023-05-03T07:06:09.597Z,99452.72
2023-05-03T07:07:11.545Z,99450.84
2023-05-03T07:08:13.489Z,99459.22
2023-05-03T07:09:15.517Z,99454.63
2023-05-03T07:10:17.577Z,99463.53
2023-05-03T07:11:24.402Z,99459.22
2023-05-03T07:12:28.415Z,99450.03
2023-05-03T07:13:30.793Z,99453.53
2023-05-03T07:14:32.696Z,99447.59
2023-05-03T07:15:34.514Z,99457.06
2023-05-03T07:16:36.398Z,99450.03
2023-05-03T07:17:38.433Z,99450.31
2023-05-03T07:18:40.681Z,99447.06
2023-05-03T07:19:42.519Z,99455.97
2023-05-03T07:20:44.398Z,99450.03
2023-05-03T07:21:46.207Z,99451.66
2023-05-03T07:22:48.279Z,99456.78
2023-05-03T07:23:50.225Z,99453.28
2023-05-03T07:24:54.775Z,99452.47
2023-05-03T07:25:56.897Z,99451.38
2023-05-03T07:26:59.020Z,99447.06
2023-05-03T07:28:01.860Z,99448.69
2023-05-03T07:29:03.869Z,99452.72
2023-05-03T07:30:06.820Z,99447.34
2023-05-03T07:31:08.914Z,99450.84
2023-05-03T07:32:12.172Z,99450.84
2023-05-03T07:33:14.162Z,99450.84
2023-05-03T07:34:16.267Z,99448.16
2023-05-03T07:35:19.373Z,99449.50
2023-05-03T07:36:21.349Z,99445.19
2023-05-03T07:37:23.388Z,99447.59
2023-05-03T07:38:25.196Z,99445.75
2023-05-03T07:39:26.980Z,99440.34
2023-05-03T07:40:32.700Z,99445.75
2023-05-03T07:41:34.597Z,99437.38
2023-05-03T07:42:36.716Z,99440.09
2023-05-03T07:43:38.638Z,99436.31
2023-05-03T07:44:41.093Z,99434.41
2023-05-03T07:45:42.996Z,99442.25
2023-05-03T07:46:44.897Z,99433.88
2023-05-03T07:47:46.994Z,99432.00
2023-05-03T07:48:49.456Z,99433.88
2023-05-03T07:49:51.441Z,99430.09
2023-05-03T07:50:53.326Z,99426.88
2023-05-03T07:51:55.144Z,99429.84
2023-05-03T07:52:57.507Z,99425.53
2023-05-03T07:53:59.376Z,99431.44
2023-05-03T07:55:03.346Z,99432.25
2023-05-03T07:56:05.366Z,99423.34
2023-05-03T07:57:07.774Z,99427.69
2023-05-03T07:58:09.606Z,99418.78
2023-05-03T07:59:11.417Z,99428.50
2023-05-03T08:00:14.455Z,99425.53
2023-05-03T08:01:16.296Z,99430.13
2023-05-03T08:02:18.336Z,99427.16
2023-05-03T08:03:20.479Z,99431.75
2023-05-03T08:04:24.538Z,99427.97
2023-05-03T08:05:26.771Z,99423.38
2023-05-03T08:06:29.414Z,99426.88
2023-05-03T08:07:32.339Z,99430.41
2023-05-03T08:08:35.848Z,99428.50
2023-05-03T08:09:37.740Z,99422.31
2023-05-03T08:10:39.691Z,99416.91
2023-05-03T08:11:43.917Z,99420.13
2023-05-03T08:12:46.611Z,99421.75
2023-05-03T08:13:48.485Z,99431.75
2023-05-03T08:14:52.485Z,99425.28
2023-05-03T08:15:54.568Z,99417.16
2023-05-03T08:16:56.539Z,99421.50
2023-05-03T08:17:58.502Z,99421.50
2023-05-03T08:19:00.444Z,99419.34
2023-05-03T08:20:02.921Z,99420.44
2023-05-03T08:21:06.334Z,99420.97
2023-05-03T08:22:11.035Z,99419.34
2023-05-03T08:23:13.435Z,99425.28
2023-05-03T08:24:16.111Z,99422.59
2023-05-03T08:25:19.022Z,99425.03
2023-05-03T08:26:22.251Z,99416.13
2023-05-03T08:27:26.060Z,99425.81
2023-05-03T08:28:27.971Z,99421.25
2023-05-03T08:29:29.806Z,99427.19
2023-05-03T08:30:32.081Z,99420.97
2023-05-03T08:31:35.066Z,99430.69
2023-05-03T08:32:36.988Z,99429.59
2023-05-03T08:33:39.469Z,99427.47
2023-05-03T08:34:41.432Z,99426.38
2023-05-03T08:35:43.419Z,99425.56
2023-05-03T08:36:45.514Z,99422.59
2023-05-03T08:37:47.626Z,99423.41
2023-05-03T08:38:50.602Z,99429.63
2023-05-03T08:39:52.533Z,99425.84
2023-05-03T08:40:59.398Z,99422.06
2023-05-03T08:42:06.964Z,99419.09
2023-05-03T08:43:10.459Z,99419.09
2023-05-03T08:44:20.385Z,99422.59
2023-05-03T08:45:22.920Z,99420.72
2023-05-03T08:46:25.961Z,99417.72
2023-05-03T08:47:28.019Z,99421.50
2023-05-03T08:48:31.184Z,99422.06
2023-05-03T08:49:35.384Z,99427.25
2023-05-03T08:50:42.264Z,99423.47
2023-05-03T08:51:49.803Z,99423.19
2023-05-03T08:52:51.874Z,99426.69
2023-05-03T08:53:53.768Z,99429.38
2023-05-03T08:54:55.676Z,99422.91
2023-05-03T08:55:57.600Z,99429.66
2023-05-03T08:56:59.453Z,99432.34
2023-05-03T08:58:01.816Z,99435.59
2023-05-03T08:59:09.142Z,99423.16
2023-05-03T09:00:12.960Z,99430.47
2023-05-03T09:01:15.768Z,99427.25
2023-05-03T09:02:18.160Z,99433.47
2023-05-03T09:03:20.049Z,99429.94
2023-05-03T09:04:34.730Z,99432.63
2023-05-03T09:05:40.311Z,99426.69
2023-05-03T09:06:42.163Z,99422.09
2023-05-03T09:08:11.128Z,99424.78
2023-05-03T09:09:14.302Z,99427.50
2023-05-03T09:10:25.311Z,99426.69
2023-05-03T09:11:32.839Z,99423.97
2023-05-03T09:12:35.939Z,99431.81
2023-05-03T09:13:37.768Z,99433.97
2023-05-03T09:14:45.743Z,99428.06
2023-05-03T09:15:55.018Z,99427.78
2023-05-03T09:17:15.306Z,99430.22
2023-05-03T09:18:20.633Z,99432.09
2023-05-03T09:19:24.306Z,99422.91
2023-05-03T09:20:37.169Z,99426.97
2023-05-03T09:21:41.088Z,99421.56
2023-05-03T09:22:54.129Z,99418.56
2023-05-03T09:23:56.202Z,99423.72
2023-05-03T09:25:01.649Z,99419.13
2023-05-03T09:26:03.656Z,99424.50
2023-05-03T09:27:19.824Z,99423.19
2023-05-03T09:28:22.026Z,99416.16
2023-05-03T09:29:35.996Z,99422.91
2023-05-03T09:30:38.276Z,99419.41
2023-05-03T09:32:05.445Z,99421.28
2023-05-03T09:33:08.071Z,99416.97
2023-05-03T09:34:23.143Z,99420.47
2023-05-03T09:35:25.233Z,99420.75
2023-05-03T09:36:27.910Z,99428.56
2023-05-03T09:37:38.862Z,99417.75
2023-05-03T09:38:40.955Z,99418.56
2023-05-03T09:39:45.774Z,99410.19
2023-05-03T09:40:48.685Z,99412.91
2023-05-03T09:41:50.836Z,99413.97
2023-05-03T09:43:08.586Z,99418.88
2023-05-03T09:44:10.874Z,99407.22
2023-05-03T09:45:24.097Z,99415.06
2023-05-03T09:46:27.412Z,99416.16
2023-05-03T09:47:31.962Z,99406.41
2023-05-03T09:48:35.657Z,99413.47
2023-05-03T09:49:38.954Z,99410.47
2023-05-03T09:50:42.895Z,99415.59
2023-05-03T09:51:44.833Z,99415.59
2023-05-03T09:52:47.201Z,99411.53
2023-05-03T09:53:49.704Z,99413.44
2023-05-03T09:54:53.960Z,99411.53
2023-05-03T09:55:59.565Z,99410.72
2023-05-03T09:57:04.937Z,99406.94
2023-05-03T09:58:08.125Z,99405.88
2023-05-03T09:59:10.271Z,99407.75
2023-05-03T10:00:16.695Z,99410.19
2023-05-03T10:01:19.323Z,99399.38
2023-05-03T10:02:21.810Z,99407.47
2023-05-03T10:03:36.999Z,99400.72
2023-05-03T10:04:56.930Z,99395.31
2023-05-03T10:06:04.872Z,99403.16
2023-05-03T10:07:13.284Z,99403.69
2023-05-03T10:08:45.218Z,99399.66
2023-05-03T10:09:48.258Z,99404.50
2023-05-03T10:10:54.437Z,99401.00
2023-05-03T10:12:01.858Z,99402.38
2023-05-03T10:13:04.392Z,99402.63
2023-05-03T10:14:07.676Z,99403.41
2023-05-03T10:15:12.888Z,99401.53
2023-05-03T10:16:23.523Z,99397.78
2023-05-03T10:17:46.415Z,99397.50
2023-05-03T10:19:03.361Z,99398.31
2023-05-03T10:20:40.085Z,99396.69
2023-05-03T10:22:05.871Z,99399.38
2023-05-03T10:23:10.778Z,99398.03
2023-05-03T10:24:16.121Z,99398.81
2023-05-03T10:25:18.124Z,99395.59
2023-05-03T10:26:20.408Z,99392.63
2023-05-03T10:27:22.253Z,99389.09
2023-05-03T10:28:24.161Z,99390.19
2023-05-03T10:29:34.817Z,99390.47
2023-05-03T10:30:38.379Z,99389.66
2023-05-03T10:31:48.478Z,99385.06
2023-05-03T10:32:50.698Z,99385.06
2023-05-03T10:33:52.774Z,99391.28
2023-05-03T10:35:19.479Z,99383.44
2023-05-03T10:36:23.166Z,99382.91
2023-05-03T10:37:28.239Z,99392.63
2023-05-03T10:38:30.090Z,99380.72
2023-05-03T10:39:32.233Z,99372.63
2023-05-03T10:40:43.505Z,99373.94
2023-05-03T10:42:03.579Z,99382.88
2023-05-03T10:43:05.556Z,99386.38
2023-05-03T10:44:35.087Z,99374.22
2023-05-03T10:45:39.239Z,99376.13
2023-05-03T10:46:44.334Z,99376.38
2023-05-03T10:48:12.250Z,99374.47
2023-05-03T10:49:20.323Z,99380.97
2023-05-03T10:50:26.391Z,99369.34
2023-05-03T10:51:36.759Z,99371.53
2023-05-03T10:52:39.089Z,99371.25
2023-05-03T10:53:43.536Z,99369.63
2023-05-03T10:54:45.492Z,99373.66
2023-05-03T10:56:15.362Z,99375.81
2023-05-03T10:57:17.458Z,99376.91
2023-05-03T10:58:19.455Z,99378.28
2023-05-03T10:59:23.317Z,99374.75
2023-05-03T11:00:33.958Z,99368.00
2023-05-03T11:01:36.721Z,99367.19
2023-05-03T11:02:58.970Z,99361.50
2023-05-03T11:04:42.229Z,99362.00
2023-05-03T11:05:44.921Z,99360.94
2023-05-03T11:06:51.116Z,99357.41
2023-05-03T11:07:53.805Z,99360.94
2023-05-03T11:08:56.432Z,99359.03
2023-05-03T11:09:58.274Z,99362.53
2023-05-03T11:11:01.181Z,99355.25
2023-05-03T11:12:08.732Z,99364.72
2023-05-03T11:13:11.572Z,99357.69
2023-05-03T11:14:14.021Z,99356.59
2023-05-03T11:15:16.078Z,99359.31
2023-05-03T11:16:18.459Z,99352.00
2023-05-03T11:17:21.547Z,99348.50
2023-05-03T11:18:27.905Z,99351.72
2023-05-03T11:19:29.863Z,99339.03
2023-05-03T11:20:31.767Z,99332.25
2023-05-03T11:21:33.880Z,99341.16
2023-05-03T11:22:36.582Z,99344.94
2023-05-03T11:23:42.862Z,99344.38
2023-05-03T11:24:44.831Z,99351.69
2023-05-03T11:25:47.226Z,99341.69
2023-05-03T11:26:49.213Z,99330.63
2023-05-03T11:27:51.270Z,99341.97
2023-05-03T11:28:54.534Z,99333.84
2023-05-03T11:29:58.453Z,99337.34
2023-05-03T11:31:02.073Z,99336.28
2023-05-03T11:32:04.131Z,99333.84
2023-05-03T11:33:06.778Z,99336.28
2023-05-03T11:34:11.205Z,99336.00
2023-05-03T11:35:15.217Z,99336.00
2023-05-03T11:36:17.274Z,99340.31
2023-05-03T11:37:19.166Z,99324.09
2023-05-03T11:38:21.205Z,99335.13
2023-05-03T11:39:23.042Z,99331.63
2023-05-03T11:40:26.079Z,99332.44
2023-05-03T11:41:28.005Z,99326.22
2023-05-03T11:42:29.928Z,99334.59
2023-05-03T11:43:32.561Z,99327.03
2023-05-03T11:44:34.839Z,99326.50
2023-05-03T11:45:44.888Z,99332.44
2023-05-03T11:46:48.349Z,99327.03
2023-05-03T11:47:52.028Z,99330.78
2023-05-03T11:48:54.167Z,99324.56
2023-05-03T11:50:00.504Z,99330.53
2023-05-03T11:51:11.032Z,99325.91
2023-05-03T11:52:13.528Z,99325.66
2023-05-03T11:53:17.506Z,99324.56
2023-05-03T11:54:26.358Z,99317.53
2023-05-03T11:55:30.438Z,99320.78
2023-05-03T11:56:32.351Z,99321.59
2023-05-03T11:57:34.275Z,99316.97
2023-05-03T11:58:36.269Z,99315.88
2023-05-03T11:59:39.904Z,99315.59
2023-05-03T12:00:50.140Z,99317.22
2023-05-03T12:01:53.766Z,99318.03
2023-05-03T12:03:00.001Z,99319.63
2023-05-03T12:04:05.632Z,99315.84
2023-05-03T12:05:10.368Z,99321.00
2023-05-03T12:06:13.749Z,99313.97
2023-05-03T12:07:19.548Z,99313.97
2023-05-03T12:08:32.041Z,99315.31
2023-05-03T12:09:35.948Z,99305.56
2023-05-03T12:10:38.527Z,99318.81
2023-05-03T12:11:43.721Z,99322.63
2023-05-03T12:13:00.238Z,99321.75
2023-05-03T12:14:03.427Z,99322.56
2023-05-03T12:15:08.059Z,99312.56
2023-05-03T12:16:14.171Z,99320.38
2023-05-03T12:17:39.155Z,99315.75
2023-05-03T12:19:02.724Z,99316.00
2023-05-03T12:21:58.825Z,99315.69
2023-05-03T12:23:10.897Z,99306.75
2023-05-03T12:24:20.151Z,99309.19
2023-05-03T12:25:25.981Z,99318.91
2023-05-03T12:26:28.837Z,99313.72
2023-05-03T12:27:32.628Z,99305.63
2023-05-03T12:28:34.777Z,99308.03
2023-05-03T12:29:37.075Z,99302.88
2023-05-03T12:30:40.821Z,99306.91
2023-05-03T12:31:44.572Z,99304.22
2023-05-03T12:32:46.710Z,99302.81
2023-05-03T12:34:06.593Z,99305.81
2023-05-03T12:35:14.184Z,99293.91
2023-05-03T12:36:19.863Z,99303.34
2023-05-03T12:37:26.159Z,99298.78